sensor_id;sensor_type;location;lat;lon;timestamp;P1;durP1;ratioP1;P2;durP2;ratioP2
12088;SDS011;6107;49.078;8.578;2023-11-21T00:00:17;2.20;;;1.15;;
12088;SDS011;6107;49.078;8.578;2023-11-21T00:02:43;2.50;;;0.60;;
12088;SDS011;6107;49.078;8.578;2023-11-21T00:05:11;0.85;;;0.65;;
12088;SDS011;6107;49.078;8.578;2023-11-21T00:07:39;10.95;;;1.30;;
12088;SDS011;6107;49.078;8.578;2023-11-21T00:10:05;4.30;;;0.88;;
12088;SDS011;6107;49.078;8.578;2023-11-21T00:12:31;3.05;;;0.98;;
12088;SDS011;6107;49.078;8.578;2023-11-21T00:14:58;0.68;;;0.65;;
12088;SDS011;6107;49.078;8.578;2023-11-21T00:17:24;8.48;;;1.83;;
12088;SDS011;6107;49.078;8.578;2023-11-21T00:19:50;5.13;;;1.38;;
12088;SDS011;6107;49.078;8.578;2023-11-21T00:22:17;4.78;;;0.57;;
12088;SDS011;6107;49.078;8.578;2023-11-21T00:24:43;2.38;;;1.23;;
12088;SDS011;6107;49.078;8.578;2023-11-21T00:27:09;5.65;;;0.90;;
12088;SDS011;6107;49.078;8.578;2023-11-21T00:29:34;3.88;;;0.75;;
12088;SDS011;6107;49.078;8.578;2023-11-21T00:32:00;9.65;;;1.10;;
12088;SDS011;6107;49.078;8.578;2023-11-21T00:34:25;5.53;;;1.00;;
12088;SDS011;6107;49.078;8.578;2023-11-21T00:36:51;0.50;;;0.50;;
12088;SDS011;6107;49.078;8.578;2023-11-21T00:39:17;3.10;;;1.40;;
12088;SDS011;6107;49.078;8.578;2023-11-21T00:41:42;5.35;;;0.70;;
12088;SDS011;6107;49.078;8.578;2023-11-21T00:44:09;5.72;;;1.38;;
12088;SDS011;6107;49.078;8.578;2023-11-21T00:46:35;2.58;;;0.45;;
12088;SDS011;6107;49.078;8.578;2023-11-21T00:49:01;5.32;;;0.70;;
12088;SDS011;6107;49.078;8.578;2023-11-21T00:51:29;4.72;;;1.02;;
12088;SDS011;6107;49.078;8.578;2023-11-21T00:53:55;2.35;;;0.93;;
12088;SDS011;6107;49.078;8.578;2023-11-21T00:56:20;2.72;;;0.90;;
12088;SDS011;6107;49.078;8.578;2023-11-21T00:58:46;1.40;;;0.60;;
12088;SDS011;6107;49.078;8.578;2023-11-21T01:01:15;3.22;;;0.82;;
12088;SDS011;6107;49.078;8.578;2023-11-21T01:03:41;1.40;;;0.52;;
12088;SDS011;6107;49.078;8.578;2023-11-21T01:06:07;5.20;;;0.80;;
12088;SDS011;6107;49.078;8.578;2023-11-21T01:08:34;0.95;;;0.70;;
12088;SDS011;6107;49.078;8.578;2023-11-21T01:11:01;6.93;;;1.15;;
12088;SDS011;6107;49.078;8.578;2023-11-21T01:13:27;5.78;;;0.80;;
12088;SDS011;6107;49.078;8.578;2023-11-21T01:15:53;1.73;;;0.65;;
12088;SDS011;6107;49.078;8.578;2023-11-21T01:18:19;0.90;;;0.68;;
12088;SDS011;6107;49.078;8.578;2023-11-21T01:20:44;1.63;;;0.50;;
12088;SDS011;6107;49.078;8.578;2023-11-21T01:23:12;3.20;;;0.85;;
12088;SDS011;6107;49.078;8.578;2023-11-21T01:25:40;6.25;;;1.75;;
12088;SDS011;6107;49.078;8.578;2023-11-21T01:28:06;4.53;;;0.70;;
12088;SDS011;6107;49.078;8.578;2023-11-21T01:30:32;1.95;;;0.73;;
12088;SDS011;6107;49.078;8.578;2023-11-21T01:32:58;5.13;;;0.68;;
12088;SDS011;6107;49.078;8.578;2023-11-21T01:35:23;3.85;;;0.73;;
12088;SDS011;6107;49.078;8.578;2023-11-21T01:37:49;10.73;;;1.45;;
12088;SDS011;6107;49.078;8.578;2023-11-21T01:40:15;6.78;;;0.63;;
12088;SDS011;6107;49.078;8.578;2023-11-21T01:42:41;4.18;;;0.68;;
12088;SDS011;6107;49.078;8.578;2023-11-21T01:45:09;5.78;;;0.77;;
12088;SDS011;6107;49.078;8.578;2023-11-21T01:47:35;9.00;;;0.93;;
12088;SDS011;6107;49.078;8.578;2023-11-21T01:50:02;0.75;;;0.47;;
12088;SDS011;6107;49.078;8.578;2023-11-21T01:52:31;2.97;;;0.60;;
12088;SDS011;6107;49.078;8.578;2023-11-21T01:54:59;0.70;;;0.70;;
12088;SDS011;6107;49.078;8.578;2023-11-21T01:57:25;12.35;;;0.88;;
12088;SDS011;6107;49.078;8.578;2023-11-21T01:59:51;1.58;;;0.77;;
12088;SDS011;6107;49.078;8.578;2023-11-21T02:02:19;1.85;;;0.63;;
12088;SDS011;6107;49.078;8.578;2023-11-21T02:04:45;3.28;;;0.98;;
12088;SDS011;6107;49.078;8.578;2023-11-21T02:07:11;5.97;;;1.38;;
12088;SDS011;6107;49.078;8.578;2023-11-21T02:09:37;5.13;;;1.02;;
12088;SDS011;6107;49.078;8.578;2023-11-21T02:12:03;1.80;;;0.70;;
12088;SDS011;6107;49.078;8.578;2023-11-21T02:14:29;6.53;;;0.80;;
12088;SDS011;6107;49.078;8.578;2023-11-21T02:16:55;3.85;;;0.70;;
12088;SDS011;6107;49.078;8.578;2023-11-21T02:19:22;9.20;;;0.95;;
12088;SDS011;6107;49.078;8.578;2023-11-21T02:21:50;7.75;;;1.30;;
12088;SDS011;6107;49.078;8.578;2023-11-21T02:24:26;3.88;;;0.65;;
12088;SDS011;6107;49.078;8.578;2023-11-21T02:26:52;14.50;;;1.25;;
12088;SDS011;6107;49.078;8.578;2023-11-21T02:29:18;2.15;;;0.85;;
12088;SDS011;6107;49.078;8.578;2023-11-21T02:31:47;4.30;;;1.00;;
12088;SDS011;6107;49.078;8.578;2023-11-21T02:34:17;3.40;;;1.10;;
12088;SDS011;6107;49.078;8.578;2023-11-21T02:36:46;4.50;;;0.77;;
12088;SDS011;6107;49.078;8.578;2023-11-21T02:39:14;5.28;;;0.60;;
12088;SDS011;6107;49.078;8.578;2023-11-21T02:41:41;2.25;;;0.82;;
12088;SDS011;6107;49.078;8.578;2023-11-21T02:44:08;1.08;;;0.73;;
12088;SDS011;6107;49.078;8.578;2023-11-21T02:46:33;1.55;;;0.82;;
12088;SDS011;6107;49.078;8.578;2023-11-21T02:49:00;3.45;;;0.85;;
12088;SDS011;6107;49.078;8.578;2023-11-21T02:51:31;2.95;;;0.70;;
12088;SDS011;6107;49.078;8.578;2023-11-21T02:53:57;2.03;;;0.95;;
12088;SDS011;6107;49.078;8.578;2023-11-21T02:56:27;2.92;;;1.08;;
12088;SDS011;6107;49.078;8.578;2023-11-21T02:58:56;1.95;;;1.00;;
12088;SDS011;6107;49.078;8.578;2023-11-21T03:01:22;3.60;;;1.35;;
12088;SDS011;6107;49.078;8.578;2023-11-21T03:03:51;2.33;;;1.15;;
12088;SDS011;6107;49.078;8.578;2023-11-21T03:06:20;9.15;;;1.15;;
12088;SDS011;6107;49.078;8.578;2023-11-21T03:08:46;2.83;;;0.90;;
12088;SDS011;6107;49.078;8.578;2023-11-21T03:11:12;0.90;;;0.60;;
12088;SDS011;6107;49.078;8.578;2023-11-21T03:13:39;10.57;;;1.38;;
12088;SDS011;6107;49.078;8.578;2023-11-21T03:16:06;1.35;;;0.75;;
12088;SDS011;6107;49.078;8.578;2023-11-21T03:18:36;4.97;;;1.05;;
12088;SDS011;6107;49.078;8.578;2023-11-21T03:21:02;5.13;;;1.20;;
12088;SDS011;6107;49.078;8.578;2023-11-21T03:23:29;1.60;;;1.00;;
12088;SDS011;6107;49.078;8.578;2023-11-21T03:25:55;4.55;;;1.42;;
12088;SDS011;6107;49.078;8.578;2023-11-21T03:28:20;3.75;;;1.02;;
12088;SDS011;6107;49.078;8.578;2023-11-21T03:30:46;3.15;;;1.25;;
12088;SDS011;6107;49.078;8.578;2023-11-21T03:33:12;5.90;;;1.10;;
12088;SDS011;6107;49.078;8.578;2023-11-21T03:35:37;1.27;;;0.75;;
12088;SDS011;6107;49.078;8.578;2023-11-21T03:38:03;9.23;;;1.30;;
12088;SDS011;6107;49.078;8.578;2023-11-21T03:40:29;2.33;;;1.08;;
12088;SDS011;6107;49.078;8.578;2023-11-21T03:42:56;2.28;;;0.98;;
12088;SDS011;6107;49.078;8.578;2023-11-21T03:45:22;1.33;;;0.95;;
12088;SDS011;6107;49.078;8.578;2023-11-21T03:47:48;9.48;;;2.13;;
12088;SDS011;6107;49.078;8.578;2023-11-21T03:50:13;2.53;;;1.10;;
12088;SDS011;6107;49.078;8.578;2023-11-21T03:52:39;6.00;;;0.63;;
12088;SDS011;6107;49.078;8.578;2023-11-21T03:55:04;2.45;;;1.58;;
12088;SDS011;6107;49.078;8.578;2023-11-21T03:57:30;4.50;;;1.10;;
12088;SDS011;6107;49.078;8.578;2023-11-21T03:59:56;1.65;;;1.17;;
12088;SDS011;6107;49.078;8.578;2023-11-21T04:02:21;1.42;;;1.00;;
12088;SDS011;6107;49.078;8.578;2023-11-21T04:04:47;6.88;;;1.67;;
12088;SDS011;6107;49.078;8.578;2023-11-21T04:07:12;4.25;;;1.50;;
12088;SDS011;6107;49.078;8.578;2023-11-21T04:09:38;5.10;;;1.10;;
12088;SDS011;6107;49.078;8.578;2023-11-21T04:12:04;9.25;;;1.63;;
12088;SDS011;6107;49.078;8.578;2023-11-21T04:14:30;1.75;;;0.82;;
12088;SDS011;6107;49.078;8.578;2023-11-21T04:16:56;11.93;;;1.15;;
12088;SDS011;6107;49.078;8.578;2023-11-21T04:19:22;2.05;;;1.05;;
12088;SDS011;6107;49.078;8.578;2023-11-21T04:21:48;3.83;;;1.25;;
12088;SDS011;6107;49.078;8.578;2023-11-21T04:24:14;1.98;;;0.95;;
12088;SDS011;6107;49.078;8.578;2023-11-21T04:26:40;6.10;;;1.40;;
12088;SDS011;6107;49.078;8.578;2023-11-21T04:29:05;2.42;;;0.88;;
12088;SDS011;6107;49.078;8.578;2023-11-21T04:31:31;1.00;;;0.80;;
12088;SDS011;6107;49.078;8.578;2023-11-21T04:33:57;0.70;;;0.70;;
12088;SDS011;6107;49.078;8.578;2023-11-21T04:36:22;2.13;;;0.82;;
12088;SDS011;6107;49.078;8.578;2023-11-21T04:38:48;1.45;;;0.95;;
12088;SDS011;6107;49.078;8.578;2023-11-21T04:41:14;2.58;;;1.17;;
12088;SDS011;6107;49.078;8.578;2023-11-21T04:43:39;3.10;;;0.88;;
12088;SDS011;6107;49.078;8.578;2023-11-21T04:46:05;3.50;;;1.48;;
12088;SDS011;6107;49.078;8.578;2023-11-21T04:48:31;2.50;;;1.23;;
12088;SDS011;6107;49.078;8.578;2023-11-21T04:50:57;1.35;;;0.90;;
12088;SDS011;6107;49.078;8.578;2023-11-21T04:53:23;7.25;;;1.20;;
12088;SDS011;6107;49.078;8.578;2023-11-21T04:55:49;3.90;;;1.00;;
12088;SDS011;6107;49.078;8.578;2023-11-21T04:58:15;2.42;;;1.27;;
12088;SDS011;6107;49.078;8.578;2023-11-21T05:00:40;2.97;;;1.38;;
12088;SDS011;6107;49.078;8.578;2023-11-21T05:03:06;3.53;;;1.60;;
12088;SDS011;6107;49.078;8.578;2023-11-21T05:05:32;1.90;;;1.25;;
12088;SDS011;6107;49.078;8.578;2023-11-21T05:08:01;4.97;;;1.20;;
12088;SDS011;6107;49.078;8.578;2023-11-21T05:10:27;8.52;;;1.30;;
12088;SDS011;6107;49.078;8.578;2023-11-21T05:12:54;6.50;;;1.33;;
12088;SDS011;6107;49.078;8.578;2023-11-21T05:15:20;2.22;;;1.33;;
12088;SDS011;6107;49.078;8.578;2023-11-21T05:17:46;4.78;;;1.13;;
12088;SDS011;6107;49.078;8.578;2023-11-21T05:20:17;5.88;;;1.50;;
12088;SDS011;6107;49.078;8.578;2023-11-21T05:22:45;2.83;;;1.38;;
12088;SDS011;6107;49.078;8.578;2023-11-21T05:25:14;5.80;;;2.50;;
12088;SDS011;6107;49.078;8.578;2023-11-21T05:27:41;4.32;;;1.50;;
12088;SDS011;6107;49.078;8.578;2023-11-21T05:30:07;6.05;;;1.52;;
12088;SDS011;6107;49.078;8.578;2023-11-21T05:32:36;5.68;;;1.95;;
12088;SDS011;6107;49.078;8.578;2023-11-21T05:35:03;5.80;;;1.25;;
12088;SDS011;6107;49.078;8.578;2023-11-21T05:37:29;6.13;;;1.55;;
12088;SDS011;6107;49.078;8.578;2023-11-21T05:39:55;7.63;;;1.83;;
12088;SDS011;6107;49.078;8.578;2023-11-21T05:42:21;4.90;;;1.95;;
12088;SDS011;6107;49.078;8.578;2023-11-21T05:44:48;2.50;;;1.58;;
12088;SDS011;6107;49.078;8.578;2023-11-21T05:47:14;12.05;;;1.92;;
12088;SDS011;6107;49.078;8.578;2023-11-21T05:49:40;7.07;;;2.13;;
12088;SDS011;6107;49.078;8.578;2023-11-21T05:52:05;6.30;;;2.20;;
12088;SDS011;6107;49.078;8.578;2023-11-21T05:54:32;3.70;;;1.80;;
12088;SDS011;6107;49.078;8.578;2023-11-21T05:56:57;2.88;;;1.92;;
12088;SDS011;6107;49.078;8.578;2023-11-21T05:59:23;3.85;;;1.83;;
12088;SDS011;6107;49.078;8.578;2023-11-21T06:01:49;4.22;;;1.63;;
12088;SDS011;6107;49.078;8.578;2023-11-21T06:04:14;8.75;;;3.72;;
12088;SDS011;6107;49.078;8.578;2023-11-21T06:06:40;6.15;;;2.35;;
12088;SDS011;6107;49.078;8.578;2023-11-21T06:09:05;2.78;;;1.70;;
12088;SDS011;6107;49.078;8.578;2023-11-21T06:11:34;7.72;;;2.05;;
12088;SDS011;6107;49.078;8.578;2023-11-21T06:13:59;3.20;;;1.60;;
12088;SDS011;6107;49.078;8.578;2023-11-21T06:16:25;1.98;;;1.02;;
12088;SDS011;6107;49.078;8.578;2023-11-21T06:18:52;2.80;;;1.55;;
12088;SDS011;6107;49.078;8.578;2023-11-21T06:21:18;1.85;;;1.25;;
12088;SDS011;6107;49.078;8.578;2023-11-21T06:23:44;1.67;;;1.33;;
12088;SDS011;6107;49.078;8.578;2023-11-21T06:26:09;7.00;;;1.65;;
12088;SDS011;6107;49.078;8.578;2023-11-21T06:28:35;3.90;;;1.48;;
12088;SDS011;6107;49.078;8.578;2023-11-21T06:31:01;2.65;;;1.80;;
12088;SDS011;6107;49.078;8.578;2023-11-21T06:33:31;3.67;;;1.67;;
12088;SDS011;6107;49.078;8.578;2023-11-21T06:35:57;5.57;;;1.40;;
12088;SDS011;6107;49.078;8.578;2023-11-21T06:38:23;4.15;;;2.35;;
12088;SDS011;6107;49.078;8.578;2023-11-21T06:40:49;2.70;;;1.60;;
12088;SDS011;6107;49.078;8.578;2023-11-21T06:43:14;7.60;;;2.05;;
12088;SDS011;6107;49.078;8.578;2023-11-21T06:45:40;3.42;;;1.40;;
12088;SDS011;6107;49.078;8.578;2023-11-21T06:48:06;2.67;;;1.58;;
12088;SDS011;6107;49.078;8.578;2023-11-21T06:50:31;2.25;;;1.52;;
12088;SDS011;6107;49.078;8.578;2023-11-21T06:52:57;2.83;;;1.45;;
12088;SDS011;6107;49.078;8.578;2023-11-21T06:55:22;3.15;;;1.25;;
12088;SDS011;6107;49.078;8.578;2023-11-21T06:57:48;2.38;;;1.65;;
12088;SDS011;6107;49.078;8.578;2023-11-21T07:00:15;2.92;;;1.10;;
12088;SDS011;6107;49.078;8.578;2023-11-21T07:02:45;1.27;;;1.00;;
12088;SDS011;6107;49.078;8.578;2023-11-21T07:05:10;1.80;;;1.20;;
12088;SDS011;6107;49.078;8.578;2023-11-21T07:07:36;1.23;;;1.10;;
12088;SDS011;6107;49.078;8.578;2023-11-21T07:10:02;4.60;;;0.90;;
12088;SDS011;6107;49.078;8.578;2023-11-21T07:12:29;1.00;;;0.73;;
12088;SDS011;6107;49.078;8.578;2023-11-21T07:14:56;0.60;;;0.60;;
12088;SDS011;6107;49.078;8.578;2023-11-21T07:17:22;2.42;;;1.00;;
12088;SDS011;6107;49.078;8.578;2023-11-21T07:19:48;2.25;;;0.95;;
12088;SDS011;6107;49.078;8.578;2023-11-21T07:22:15;4.03;;;1.70;;
12088;SDS011;6107;49.078;8.578;2023-11-21T07:24:47;1.95;;;1.23;;
12088;SDS011;6107;49.078;8.578;2023-11-21T07:27:16;2.72;;;1.48;;
12088;SDS011;6107;49.078;8.578;2023-11-21T07:29:42;1.50;;;1.27;;
12088;SDS011;6107;49.078;8.578;2023-11-21T07:32:07;5.28;;;2.08;;
12088;SDS011;6107;49.078;8.578;2023-11-21T07:34:34;8.18;;;1.73;;
12088;SDS011;6107;49.078;8.578;2023-11-21T07:37:01;2.95;;;2.00;;
12088;SDS011;6107;49.078;8.578;2023-11-21T07:39:27;5.57;;;2.08;;
12088;SDS011;6107;49.078;8.578;2023-11-21T07:41:53;3.63;;;2.17;;
12088;SDS011;6107;49.078;8.578;2023-11-21T07:44:19;2.70;;;1.90;;
12088;SDS011;6107;49.078;8.578;2023-11-21T07:46:45;4.78;;;2.40;;
12088;SDS011;6107;49.078;8.578;2023-11-21T07:49:11;4.97;;;2.40;;
12088;SDS011;6107;49.078;8.578;2023-11-21T07:51:39;5.95;;;3.08;;
12088;SDS011;6107;49.078;8.578;2023-11-21T07:54:05;6.22;;;2.33;;
12088;SDS011;6107;49.078;8.578;2023-11-21T07:56:31;3.55;;;2.10;;
12088;SDS011;6107;49.078;8.578;2023-11-21T07:58:57;6.00;;;2.83;;
12088;SDS011;6107;49.078;8.578;2023-11-21T08:01:22;3.80;;;2.33;;
12088;SDS011;6107;49.078;8.578;2023-11-21T08:03:48;3.13;;;2.05;;
12088;SDS011;6107;49.078;8.578;2023-11-21T08:06:16;4.15;;;2.88;;
12088;SDS011;6107;49.078;8.578;2023-11-21T08:08:42;6.57;;;2.90;;
12088;SDS011;6107;49.078;8.578;2023-11-21T08:11:07;4.97;;;3.33;;
12088;SDS011;6107;49.078;8.578;2023-11-21T08:13:35;4.47;;;2.55;;
12088;SDS011;6107;49.078;8.578;2023-11-21T08:16:00;11.07;;;3.10;;
12088;SDS011;6107;49.078;8.578;2023-11-21T08:18:30;4.65;;;2.70;;
12088;SDS011;6107;49.078;8.578;2023-11-21T08:20:56;4.45;;;2.30;;
12088;SDS011;6107;49.078;8.578;2023-11-21T08:23:22;4.82;;;3.10;;
12088;SDS011;6107;49.078;8.578;2023-11-21T08:25:51;5.28;;;3.47;;
12088;SDS011;6107;49.078;8.578;2023-11-21T08:28:17;6.05;;;3.10;;
12088;SDS011;6107;49.078;8.578;2023-11-21T08:30:43;6.75;;;3.53;;
12088;SDS011;6107;49.078;8.578;2023-11-21T08:33:09;9.48;;;3.33;;
12088;SDS011;6107;49.078;8.578;2023-11-21T08:35:36;6.30;;;3.65;;
12088;SDS011;6107;49.078;8.578;2023-11-21T08:38:02;8.23;;;4.28;;
12088;SDS011;6107;49.078;8.578;2023-11-21T08:40:28;7.43;;;3.38;;
12088;SDS011;6107;49.078;8.578;2023-11-21T08:42:54;7.28;;;3.83;;
12088;SDS011;6107;49.078;8.578;2023-11-21T08:45:23;8.77;;;3.97;;
12088;SDS011;6107;49.078;8.578;2023-11-21T08:47:50;6.75;;;3.55;;
12088;SDS011;6107;49.078;8.578;2023-11-21T08:50:16;11.27;;;5.03;;
12088;SDS011;6107;49.078;8.578;2023-11-21T08:52:42;9.30;;;4.28;;
12088;SDS011;6107;49.078;8.578;2023-11-21T08:55:08;10.05;;;5.00;;
12088;SDS011;6107;49.078;8.578;2023-11-21T08:57:38;14.43;;;5.95;;
12088;SDS011;6107;49.078;8.578;2023-11-21T09:00:06;11.18;;;5.32;;
12088;SDS011;6107;49.078;8.578;2023-11-21T09:02:42;12.07;;;5.18;;
12088;SDS011;6107;49.078;8.578;2023-11-21T09:05:11;17.88;;;6.38;;
12088;SDS011;6107;49.078;8.578;2023-11-21T09:07:39;10.18;;;5.72;;
12088;SDS011;6107;49.078;8.578;2023-11-21T09:10:06;15.77;;;6.05;;
12088;SDS011;6107;49.078;8.578;2023-11-21T09:12:32;10.95;;;5.20;;
12088;SDS011;6107;49.078;8.578;2023-11-21T09:15:00;14.60;;;5.93;;
12088;SDS011;6107;49.078;8.578;2023-11-21T09:17:27;13.82;;;6.07;;
12088;SDS011;6107;49.078;8.578;2023-11-21T09:19:53;17.85;;;7.45;;
12088;SDS011;6107;49.078;8.578;2023-11-21T09:22:18;19.20;;;7.50;;
12088;SDS011;6107;49.078;8.578;2023-11-21T09:24:44;16.13;;;8.05;;
12088;SDS011;6107;49.078;8.578;2023-11-21T09:27:10;17.27;;;7.80;;
12088;SDS011;6107;49.078;8.578;2023-11-21T09:29:36;20.80;;;9.18;;
12088;SDS011;6107;49.078;8.578;2023-11-21T09:32:07;16.83;;;7.25;;
12088;SDS011;6107;49.078;8.578;2023-11-21T09:34:37;20.10;;;7.72;;
12088;SDS011;6107;49.078;8.578;2023-11-21T09:37:03;18.02;;;7.30;;
12088;SDS011;6107;49.078;8.578;2023-11-21T09:39:31;26.65;;;9.38;;
12088;SDS011;6107;49.078;8.578;2023-11-21T09:41:57;22.08;;;7.85;;
12088;SDS011;6107;49.078;8.578;2023-11-21T09:44:45;21.88;;;8.32;;
12088;SDS011;6107;49.078;8.578;2023-11-21T09:47:29;19.10;;;8.77;;
12088;SDS011;6107;49.078;8.578;2023-11-21T09:49:55;22.65;;;7.90;;
12088;SDS011;6107;49.078;8.578;2023-11-21T09:52:26;31.15;;;10.88;;
12088;SDS011;6107;49.078;8.578;2023-11-21T09:54:55;22.10;;;9.77;;
12088;SDS011;6107;49.078;8.578;2023-11-21T09:57:27;25.33;;;9.38;;
12088;SDS011;6107;49.078;8.578;2023-11-21T09:59:54;22.45;;;8.20;;
12088;SDS011;6107;49.078;8.578;2023-11-21T10:02:24;21.17;;;9.23;;
12088;SDS011;6107;49.078;8.578;2023-11-21T10:04:54;21.63;;;8.75;;
12088;SDS011;6107;49.078;8.578;2023-11-21T10:07:21;19.08;;;7.40;;
12088;SDS011;6107;49.078;8.578;2023-11-21T10:09:47;21.35;;;8.15;;
12088;SDS011;6107;49.078;8.578;2023-11-21T10:12:16;30.23;;;9.85;;
12088;SDS011;6107;49.078;8.578;2023-11-21T10:14:41;20.48;;;7.72;;
12088;SDS011;6107;49.078;8.578;2023-11-21T10:17:10;22.02;;;7.72;;
12088;SDS011;6107;49.078;8.578;2023-11-21T10:19:37;16.27;;;7.18;;
12088;SDS011;6107;49.078;8.578;2023-11-21T10:22:04;24.67;;;8.75;;
12088;SDS011;6107;49.078;8.578;2023-11-21T10:24:32;20.50;;;8.75;;
12088;SDS011;6107;49.078;8.578;2023-11-21T10:26:58;19.25;;;8.00;;
12088;SDS011;6107;49.078;8.578;2023-11-21T10:29:28;18.55;;;8.18;;
12088;SDS011;6107;49.078;8.578;2023-11-21T10:31:55;20.42;;;8.32;;
12088;SDS011;6107;49.078;8.578;2023-11-21T10:34:24;17.08;;;7.60;;
12088;SDS011;6107;49.078;8.578;2023-11-21T10:36:50;19.75;;;8.02;;
12088;SDS011;6107;49.078;8.578;2023-11-21T10:39:22;17.13;;;7.90;;
12088;SDS011;6107;49.078;8.578;2023-11-21T10:41:49;18.50;;;7.73;;
12088;SDS011;6107;49.078;8.578;2023-11-21T10:44:16;19.88;;;7.80;;
12088;SDS011;6107;49.078;8.578;2023-11-21T10:46:46;20.83;;;8.70;;
12088;SDS011;6107;49.078;8.578;2023-11-21T10:49:19;20.48;;;8.18;;
12088;SDS011;6107;49.078;8.578;2023-11-21T10:51:45;20.75;;;9.63;;
12088;SDS011;6107;49.078;8.578;2023-11-21T10:54:11;16.17;;;8.30;;
12088;SDS011;6107;49.078;8.578;2023-11-21T10:56:37;18.88;;;7.90;;
12088;SDS011;6107;49.078;8.578;2023-11-21T10:59:07;19.25;;;9.13;;
12088;SDS011;6107;49.078;8.578;2023-11-21T11:04:10;17.83;;;8.70;;
12088;SDS011;6107;49.078;8.578;2023-11-21T11:06:42;21.50;;;8.75;;
12088;SDS011;6107;49.078;8.578;2023-11-21T11:09:10;15.95;;;7.35;;
12088;SDS011;6107;49.078;8.578;2023-11-21T11:11:42;21.45;;;10.45;;
12088;SDS011;6107;49.078;8.578;2023-11-21T11:14:11;21.80;;;10.85;;
12088;SDS011;6107;49.078;8.578;2023-11-21T11:16:38;17.02;;;9.23;;
12088;SDS011;6107;49.078;8.578;2023-11-21T11:19:10;18.25;;;8.30;;
12088;SDS011;6107;49.078;8.578;2023-11-21T11:36:28;12.57;;;4.55;;
12088;SDS011;6107;49.078;8.578;2023-11-21T11:38:59;9.07;;;4.82;;
12088;SDS011;6107;49.078;8.578;2023-11-21T11:41:30;9.50;;;4.68;;
12088;SDS011;6107;49.078;8.578;2023-11-21T11:44:02;7.18;;;3.67;;
12088;SDS011;6107;49.078;8.578;2023-11-21T11:49:27;3.90;;;2.60;;
12088;SDS011;6107;49.078;8.578;2023-11-21T11:54:56;5.43;;;3.00;;
12088;SDS011;6107;49.078;8.578;2023-11-21T11:57:26;5.75;;;2.45;;
12088;SDS011;6107;49.078;8.578;2023-11-21T12:05:24;4.63;;;2.97;;
12088;SDS011;6107;49.078;8.578;2023-11-21T12:10:23;4.57;;;2.60;;
12088;SDS011;6107;49.078;8.578;2023-11-21T12:12:54;3.53;;;2.22;;
12088;SDS011;6107;49.078;8.578;2023-11-21T12:15:21;9.18;;;4.18;;
12088;SDS011;6107;49.078;8.578;2023-11-21T12:17:48;6.50;;;3.38;;
12088;SDS011;6107;49.078;8.578;2023-11-21T12:20:15;7.97;;;3.25;;
12088;SDS011;6107;49.078;8.578;2023-11-21T12:22:43;11.25;;;4.57;;
12088;SDS011;6107;49.078;8.578;2023-11-21T12:25:32;5.38;;;2.90;;
12088;SDS011;6107;49.078;8.578;2023-11-21T12:27:58;9.23;;;4.97;;
12088;SDS011;6107;49.078;8.578;2023-11-21T12:30:26;6.57;;;3.35;;
12088;SDS011;6107;49.078;8.578;2023-11-21T12:33:01;7.10;;;3.70;;
12088;SDS011;6107;49.078;8.578;2023-11-21T12:35:28;8.10;;;4.05;;
12088;SDS011;6107;49.078;8.578;2023-11-21T12:37:56;12.05;;;4.57;;
12088;SDS011;6107;49.078;8.578;2023-11-21T12:40:24;7.88;;;4.28;;
12088;SDS011;6107;49.078;8.578;2023-11-21T12:42:54;9.70;;;4.25;;
12088;SDS011;6107;49.078;8.578;2023-11-21T12:45:24;12.47;;;5.20;;
12088;SDS011;6107;49.078;8.578;2023-11-21T12:47:56;12.27;;;4.90;;
12088;SDS011;6107;49.078;8.578;2023-11-21T12:50:28;11.95;;;4.57;;
12088;SDS011;6107;49.078;8.578;2023-11-21T12:53:01;15.52;;;5.55;;
12088;SDS011;6107;49.078;8.578;2023-11-21T12:55:30;8.50;;;5.10;;
12088;SDS011;6107;49.078;8.578;2023-11-21T12:57:57;8.68;;;5.72;;
12088;SDS011;6107;49.078;8.578;2023-11-21T13:00:32;8.70;;;4.28;;
12088;SDS011;6107;49.078;8.578;2023-11-21T13:03:02;5.88;;;3.72;;
12088;SDS011;6107;49.078;8.578;2023-11-21T13:05:35;10.55;;;4.97;;
12088;SDS011;6107;49.078;8.578;2023-11-21T13:08:07;5.97;;;3.70;;
12088;SDS011;6107;49.078;8.578;2023-11-21T13:10:36;7.90;;;3.72;;
12088;SDS011;6107;49.078;8.578;2023-11-21T13:13:04;8.45;;;3.95;;
12088;SDS011;6107;49.078;8.578;2023-11-21T13:15:33;11.25;;;3.63;;
12088;SDS011;6107;49.078;8.578;2023-11-21T13:18:01;7.72;;;3.78;;
12088;SDS011;6107;49.078;8.578;2023-11-21T13:20:27;6.78;;;3.72;;
12088;SDS011;6107;49.078;8.578;2023-11-21T13:22:57;6.65;;;3.63;;
12088;SDS011;6107;49.078;8.578;2023-11-21T13:25:27;16.30;;;3.72;;
12088;SDS011;6107;49.078;8.578;2023-11-21T13:27:57;11.05;;;3.30;;
12088;SDS011;6107;49.078;8.578;2023-11-21T13:32:58;7.55;;;2.95;;
12088;SDS011;6107;49.078;8.578;2023-11-21T13:35:27;5.47;;;3.20;;
12088;SDS011;6107;49.078;8.578;2023-11-21T13:38:06;6.93;;;3.20;;
12088;SDS011;6107;49.078;8.578;2023-11-21T13:40:34;5.75;;;2.88;;
12088;SDS011;6107;49.078;8.578;2023-11-21T13:43:14;9.90;;;3.22;;
12088;SDS011;6107;49.078;8.578;2023-11-21T13:45:41;4.78;;;2.65;;
12088;SDS011;6107;49.078;8.578;2023-11-21T13:48:08;5.72;;;3.25;;
12088;SDS011;6107;49.078;8.578;2023-11-21T13:50:57;4.72;;;3.15;;
12088;SDS011;6107;49.078;8.578;2023-11-21T13:53:26;4.65;;;2.22;;
12088;SDS011;6107;49.078;8.578;2023-11-21T13:55:52;6.65;;;2.92;;
12088;SDS011;6107;49.078;8.578;2023-11-21T13:58:24;4.93;;;2.83;;
12088;SDS011;6107;49.078;8.578;2023-11-21T14:01:06;5.88;;;3.25;;
12088;SDS011;6107;49.078;8.578;2023-11-21T14:03:49;5.65;;;2.63;;
12088;SDS011;6107;49.078;8.578;2023-11-21T14:06:21;5.30;;;2.90;;
12088;SDS011;6107;49.078;8.578;2023-11-21T14:08:52;4.35;;;2.40;;
12088;SDS011;6107;49.078;8.578;2023-11-21T14:11:21;3.75;;;2.20;;
12088;SDS011;6107;49.078;8.578;2023-11-21T14:13:47;7.50;;;2.92;;
12088;SDS011;6107;49.078;8.578;2023-11-21T14:16:14;6.00;;;2.90;;
12088;SDS011;6107;49.078;8.578;2023-11-21T14:18:42;12.77;;;2.20;;
12088;SDS011;6107;49.078;8.578;2023-11-21T14:21:18;4.65;;;2.22;;
12088;SDS011;6107;49.078;8.578;2023-11-21T14:23:44;7.45;;;2.60;;
12088;SDS011;6107;49.078;8.578;2023-11-21T14:26:10;4.97;;;2.58;;
12088;SDS011;6107;49.078;8.578;2023-11-21T14:28:40;4.43;;;1.75;;
12088;SDS011;6107;49.078;8.578;2023-11-21T14:31:06;3.13;;;1.90;;
12088;SDS011;6107;49.078;8.578;2023-11-21T14:33:33;3.60;;;2.22;;
12088;SDS011;6107;49.078;8.578;2023-11-21T14:35:58;5.40;;;2.35;;
12088;SDS011;6107;49.078;8.578;2023-11-21T14:38:24;10.77;;;3.30;;
12088;SDS011;6107;49.078;8.578;2023-11-21T14:40:49;4.60;;;2.35;;
12088;SDS011;6107;49.078;8.578;2023-11-21T14:43:22;5.15;;;2.92;;
12088;SDS011;6107;49.078;8.578;2023-11-21T14:45:49;8.02;;;3.13;;
12088;SDS011;6107;49.078;8.578;2023-11-21T14:48:15;6.82;;;4.55;;
12088;SDS011;6107;49.078;8.578;2023-11-21T14:50:48;6.73;;;3.40;;
12088;SDS011;6107;49.078;8.578;2023-11-21T14:53:37;12.68;;;3.63;;
12088;SDS011;6107;49.078;8.578;2023-11-21T14:56:18;8.30;;;3.38;;
12088;SDS011;6107;49.078;8.578;2023-11-21T14:58:56;5.60;;;3.20;;
12088;SDS011;6107;49.078;8.578;2023-11-21T15:01:25;5.75;;;3.15;;
12088;SDS011;6107;49.078;8.578;2023-11-21T15:04:11;4.93;;;3.00;;
12088;SDS011;6107;49.078;8.578;2023-11-21T15:09:23;12.88;;;3.75;;
12088;SDS011;6107;49.078;8.578;2023-11-21T15:12:01;7.43;;;3.53;;
12088;SDS011;6107;49.078;8.578;2023-11-21T15:14:40;6.05;;;3.05;;
12088;SDS011;6107;49.078;8.578;2023-11-21T15:19:53;7.90;;;3.22;;
12088;SDS011;6107;49.078;8.578;2023-11-21T15:22:19;7.95;;;3.70;;
12088;SDS011;6107;49.078;8.578;2023-11-21T15:24:45;7.18;;;3.00;;
12088;SDS011;6107;49.078;8.578;2023-11-21T15:27:14;6.20;;;3.25;;
12088;SDS011;6107;49.078;8.578;2023-11-21T15:29:41;6.82;;;3.25;;
12088;SDS011;6107;49.078;8.578;2023-11-21T15:32:08;10.32;;;3.38;;
12088;SDS011;6107;49.078;8.578;2023-11-21T15:34:34;5.70;;;2.83;;
12088;SDS011;6107;49.078;8.578;2023-11-21T15:37:00;4.82;;;2.63;;
12088;SDS011;6107;49.078;8.578;2023-11-21T15:39:28;7.95;;;3.03;;